createdAt,value
2023-04-29T00:01:04.229Z,97270.78
2023-04-29T00:03:32.903Z,97270.19
2023-04-29T00:06:00.684Z,97264.72
2023-04-29T00:08:27.889Z,97265.50
2023-04-29T00:10:54.718Z,97264.63
2023-04-29T00:13:21.489Z,97267.84
2023-04-29T00:15:48.253Z,97274.47
2023-04-29T00:18:14.883Z,97271.53
2023-04-29T00:20:42.248Z,97274.31
2023-04-29T00:23:08.843Z,97275.25
2023-04-29T00:25:36.077Z,97271.63
2023-04-29T00:28:03.458Z,97264.81
2023-04-29T00:30:30.278Z,97263.31
2023-04-29T00:32:56.979Z,97268.31
2023-04-29T00:35:23.641Z,97270.59
2023-04-29T00:37:50.328Z,97267.94
2023-04-29T00:40:17.513Z,97262.47
2023-04-29T00:42:44.329Z,97261.47
2023-04-29T00:45:11.724Z,97264.94
2023-04-29T00:47:38.763Z,97265.44
2023-04-29T00:50:06.204Z,97248.78
2023-04-29T00:52:33.081Z,97245.25
2023-04-29T00:55:00.227Z,97261.78
2023-04-29T00:57:30.214Z,97261.16
2023-04-29T01:00:00.348Z,97246.13
2023-04-29T01:02:28.505Z,97242.19
2023-04-29T01:04:55.775Z,97255.13
2023-04-29T01:07:44.223Z,97255.19
2023-04-29T01:10:20.185Z,97262.75
2023-04-29T01:12:54.853Z,97258.44
2023-04-29T01:15:22.951Z,97259.25
2023-04-29T01:17:52.489Z,97257.25
2023-04-29T01:20:19.613Z,97251.50
2023-04-29T01:22:46.172Z,97259.06
2023-04-29T01:25:13.130Z,97261.44
2023-04-29T01:28:05.321Z,97262.88
2023-04-29T01:30:38.000Z,97259.72
2023-04-29T01:33:20.073Z,97263.75
2023-04-29T01:35:55.720Z,97264.94
2023-04-29T01:38:44.841Z,97263.66
2023-04-29T01:41:31.839Z,97262.88
2023-04-29T01:43:58.902Z,97264.50
2023-04-29T01:46:25.565Z,97259.78
2023-04-29T01:48:55.603Z,97266.56
2023-04-29T01:51:22.287Z,97263.75
2023-04-29T01:53:49.279Z,97272.47
2023-04-29T01:56:16.175Z,97274.16
2023-04-29T01:58:42.948Z,97275.00
2023-04-29T02:01:10.541Z,97275.81
2023-04-29T02:03:37.693Z,97266.00
2023-04-29T02:06:06.987Z,97271.94
2023-04-29T02:08:33.687Z,97268.06
2023-04-29T02:11:00.560Z,97266.97
2023-04-29T02:13:27.206Z,97262.13
2023-04-29T02:15:53.832Z,97269.03
2023-04-29T02:18:20.391Z,97269.03
2023-04-29T02:20:47.015Z,97262.00
2023-04-29T02:23:13.813Z,97259.69
2023-04-29T02:25:40.426Z,97257.44
2023-04-29T02:28:07.380Z,97260.38
2023-04-29T02:30:34.041Z,97264.00
2023-04-29T02:33:00.703Z,97261.75
2023-04-29T02:35:27.465Z,97264.09
2023-04-29T02:37:54.072Z,97267.63
2023-04-29T02:40:21.630Z,97260.16
2023-04-29T02:42:48.396Z,97260.22
2023-04-29T02:45:15.218Z,97262.16
2023-04-29T02:47:41.913Z,97268.44
2023-04-29T02:50:08.946Z,97270.34
2023-04-29T02:52:35.524Z,97258.31
2023-04-29T02:55:02.690Z,97271.13
2023-04-29T02:57:29.830Z,97268.81
2023-04-29T02:59:56.824Z,97276.41
2023-04-29T03:02:23.610Z,97276.03
2023-04-29T03:04:50.240Z,97270.56
2023-04-29T03:07:17.558Z,97269.00
2023-04-29T03:09:44.002Z,97277.81
2023-04-29T03:12:10.608Z,97281.84
2023-04-29T03:14:37.238Z,97276.00
2023-04-29T03:17:04.974Z,97282.78
2023-04-29T03:19:31.826Z,97278.81
2023-04-29T03:21:58.485Z,97284.34
2023-04-29T03:24:25.157Z,97280.81
2023-04-29T03:26:51.853Z,97293.91
2023-04-29T03:29:18.439Z,97288.03
2023-04-29T03:31:45.388Z,97298.88
2023-04-29T03:34:12.052Z,97300.91
2023-04-29T03:36:38.633Z,97311.84
2023-04-29T03:39:05.345Z,97308.75
2023-04-29T03:41:32.050Z,97307.47
2023-04-29T03:44:00.932Z,97313.38
2023-04-29T03:46:27.961Z,97307.94
2023-04-29T03:48:56.182Z,97319.78
2023-04-29T03:51:26.759Z,97308.75
2023-04-29T03:53:56.336Z,97316.66
2023-04-29T03:56:23.127Z,97319.31
2023-04-29T03:58:49.863Z,97330.75
2023-04-29T04:01:16.850Z,97329.19
2023-04-29T04:03:43.638Z,97328.72
2023-04-29T04:06:10.358Z,97326.16
2023-04-29T04:08:36.917Z,97326.41
2023-04-29T04:11:04.758Z,97328.66
2023-04-29T04:13:31.408Z,97325.53
2023-04-29T04:15:58.372Z,97330.59
2023-04-29T04:18:25.130Z,97327.56
2023-04-29T04:20:51.782Z,97330.56
2023-04-29T04:23:18.443Z,97333.19
2023-04-29T04:25:49.169Z,97331.97
2023-04-29T04:28:15.925Z,97335.94
2023-04-29T04:30:43.118Z,97317.13
2023-04-29T04:33:10.783Z,97328.03
2023-04-29T04:35:37.403Z,97328.38
2023-04-29T04:38:04.075Z,97332.63
2023-04-29T04:40:30.848Z,97326.56
2023-04-29T04:42:57.463Z,97319.06
2023-04-29T04:45:24.197Z,97326.13
2023-04-29T04:47:50.929Z,97328.81
2023-04-29T04:50:17.801Z,97324.41
2023-04-29T04:52:44.424Z,97316.03
2023-04-29T04:55:13.775Z,97319.31
2023-04-29T04:57:41.753Z,97316.88
2023-04-29T05:00:08.934Z,97325.97
2023-04-29T05:02:36.094Z,97332.66
2023-04-29T05:05:02.840Z,97334.09
2023-04-29T05:07:29.468Z,97336.38
2023-04-29T05:09:56.250Z,97320.16
2023-04-29T05:12:23.598Z,97325.22
2023-04-29T05:14:52.862Z,97328.19
2023-04-29T05:17:19.665Z,97322.22
2023-04-29T05:19:46.726Z,97314.75
2023-04-29T05:22:13.491Z,97315.66
2023-04-29T05:24:40.122Z,97323.03
2023-04-29T05:27:06.938Z,97323.28
2023-04-29T05:29:33.798Z,97317.63
2023-04-29T05:32:00.491Z,97321.44
2023-04-29T05:34:27.232Z,97321.16
2023-04-29T05:36:54.078Z,97317.00
2023-04-29T05:39:20.880Z,97316.00
2023-04-29T05:41:47.465Z,97316.75
2023-04-29T05:44:14.146Z,97314.31
2023-04-29T05:46:40.832Z,97312.63
2023-04-29T05:49:07.449Z,97314.78
2023-04-29T05:51:34.042Z,97312.81
2023-04-29T05:54:00.678Z,97304.09
2023-04-29T05:56:27.297Z,97298.69
2023-04-29T05:58:54.006Z,97285.97
2023-04-29T06:01:20.571Z,97274.88
2023-04-29T06:03:47.543Z,97263.97
2023-04-29T06:06:14.503Z,97261.88
2023-04-29T06:08:41.548Z,97249.78
2023-04-29T06:11:08.285Z,97243.09
2023-04-29T06:13:35.189Z,97245.28
2023-04-29T06:16:01.930Z,97238.03
2023-04-29T06:18:28.621Z,97239.28
2023-04-29T06:20:55.206Z,97238.53
2023-04-29T06:23:21.857Z,97236.28
2023-04-29T06:25:49.116Z,97232.13
2023-04-29T06:28:17.055Z,97227.28
2023-04-29T06:30:43.704Z,97244.88
2023-04-29T06:33:10.441Z,97252.19
2023-04-29T06:35:40.658Z,97247.63
2023-04-29T06:38:08.606Z,97248.88
2023-04-29T06:40:35.689Z,97231.41
2023-04-29T06:43:04.713Z,97239.00
2023-04-29T06:45:31.796Z,97233.28
2023-04-29T06:47:58.489Z,97235.47
2023-04-29T06:50:26.080Z,97223.06
2023-04-29T06:52:53.018Z,97222.38
2023-04-29T06:55:19.732Z,97211.78
2023-04-29T06:57:46.405Z,97219.22
2023-04-29T07:00:13.352Z,97252.88
2023-04-29T07:02:40.333Z,97243.63
2023-04-29T07:05:07.629Z,97241.06
2023-04-29T07:07:34.469Z,97239.13
2023-04-29T07:10:01.190Z,97237.31
2023-04-29T07:12:27.867Z,97227.38
2023-04-29T07:14:54.573Z,97233.88
2023-04-29T07:17:21.215Z,97224.31
2023-04-29T07:19:47.888Z,97218.28
2023-04-29T07:22:14.562Z,97223.13
2023-04-29T07:24:41.617Z,97225.59
2023-04-29T07:27:08.323Z,97218.53
2023-04-29T07:29:34.960Z,97216.47
2023-04-29T07:32:01.547Z,97220.94
2023-04-29T07:34:28.140Z,97213.91
2023-04-29T07:36:54.770Z,97211.31
2023-04-29T07:39:22.062Z,97224.41
2023-04-29T07:41:48.598Z,97217.94
2023-04-29T07:44:15.428Z,97213.50
2023-04-29T07:46:42.159Z,97211.69
2023-04-29T07:49:09.049Z,97215.03
2023-04-29T07:51:35.736Z,97210.13
2023-04-29T07:54:02.409Z,97213.47
2023-04-29T07:56:29.070Z,97214.72
2023-04-29T07:58:55.784Z,97206.22
2023-04-29T08:01:22.689Z,97208.81
2023-04-29T08:03:49.651Z,97194.44
2023-04-29T08:06:16.988Z,97197.53
2023-04-29T08:08:44.104Z,97194.13
2023-04-29T08:11:17.351Z,97177.78
2023-04-29T08:13:44.114Z,97190.13
2023-04-29T08:16:11.759Z,97184.66
2023-04-29T08:18:38.504Z,97180.09
2023-04-29T08:21:05.235Z,97179.22
2023-04-29T08:23:32.636Z,97171.84
2023-04-29T08:25:59.106Z,97171.66
2023-04-29T08:28:25.977Z,97168.81
2023-04-29T08:30:52.623Z,97179.19
2023-04-29T08:33:19.314Z,97172.84
2023-04-29T08:35:45.929Z,97176.88
2023-04-29T08:38:12.510Z,97181.41
2023-04-29T08:40:45.773Z,97173.91
2023-04-29T08:43:14.009Z,97176.94
2023-04-29T08:45:42.567Z,97168.06
2023-04-29T08:48:10.127Z,97161.84
2023-04-29T08:50:40.970Z,97161.28
2023-04-29T08:53:11.777Z,97163.41
2023-04-29T08:55:48.416Z,97160.88
2023-04-29T08:58:16.241Z,97150.53
2023-04-29T09:00:44.324Z,97154.06
2023-04-29T09:03:29.564Z,97138.69
2023-04-29T09:06:00.411Z,97157.03
2023-04-29T09:08:27.816Z,97149.78
2023-04-29T09:10:54.711Z,97135.97
2023-04-29T09:13:29.120Z,97140.84
2023-04-29T09:15:56.288Z,97139.47
2023-04-29T09:18:48.871Z,97140.25
2023-04-29T09:21:23.692Z,97132.06
2023-04-29T09:23:53.839Z,97126.19
2023-04-29T09:26:21.112Z,97131.44
2023-04-29T09:28:49.817Z,97120.41
2023-04-29T09:31:28.088Z,97123.59
2023-04-29T09:33:57.628Z,97114.91
2023-04-29T09:36:46.427Z,97113.03
2023-04-29T09:39:23.470Z,97090.09
2023-04-29T09:41:52.877Z,97102.56
2023-04-29T09:44:22.447Z,97093.09
2023-04-29T09:47:02.938Z,97092.97
2023-04-29T09:49:35.908Z,97093.09
2023-04-29T09:52:04.607Z,97088.97
2023-04-29T09:54:33.262Z,97086.16
2023-04-29T09:57:02.492Z,97081.97
2023-04-29T09:59:29.081Z,97082.25
2023-04-29T10:01:58.357Z,97077.94
2023-04-29T10:04:27.077Z,97071.16
2023-04-29T10:06:55.548Z,97070.59
2023-04-29T10:09:23.623Z,97074.00
2023-04-29T10:11:54.225Z,97064.44
2023-04-29T10:14:23.174Z,97060.75
2023-04-29T10:17:11.528Z,97059.56
2023-04-29T10:19:59.399Z,97062.34
2023-04-29T10:22:49.202Z,97056.44
2023-04-29T10:25:18.370Z,97061.59
2023-04-29T10:27:45.777Z,97061.47
2023-04-29T10:30:14.002Z,97060.69
2023-04-29T10:35:25.801Z,97062.94
2023-04-29T10:37:54.349Z,97042.59
2023-04-29T10:40:26.980Z,97053.09
2023-04-29T10:42:54.839Z,97051.03
2023-04-29T10:45:30.031Z,97058.63
2023-04-29T10:48:09.168Z,97057.16
2023-04-29T10:50:42.726Z,97058.72
2023-04-29T10:53:09.354Z,97060.97
2023-04-29T10:55:37.869Z,97055.09
2023-04-29T10:58:05.644Z,97042.88
2023-04-29T11:00:34.941Z,97036.34
2023-04-29T11:03:03.015Z,97035.25
2023-04-29T11:05:35.066Z,97044.16
2023-04-29T11:08:13.086Z,97026.03
2023-04-29T11:10:44.195Z,97039.69
2023-04-29T11:13:31.142Z,97043.13
2023-04-29T11:16:09.643Z,97041.72
2023-04-29T11:18:56.925Z,97032.66
2023-04-29T11:21:23.773Z,97031.94
2023-04-29T11:23:52.280Z,97031.63
2023-04-29T11:26:21.861Z,97037.56
2023-04-29T11:28:48.657Z,97035.56
2023-04-29T11:31:15.500Z,97033.09
2023-04-29T11:33:42.237Z,97027.34
2023-04-29T11:36:11.395Z,97014.88
2023-04-29T11:38:41.300Z,97010.88
2023-04-29T11:41:08.970Z,97010.19
2023-04-29T11:43:35.667Z,97012.63
2023-04-29T11:46:02.335Z,97018.16
2023-04-29T11:48:30.413Z,97023.38
2023-04-29T11:51:00.214Z,97014.06
2023-04-29T11:53:28.112Z,97016.09
2023-04-29T11:55:56.131Z,97013.06
2023-04-29T11:58:23.982Z,97011.53
2023-04-29T12:00:52.064Z,97009.47
2023-04-29T12:03:21.200Z,97014.59
2023-04-29T12:05:55.387Z,97002.19
2023-04-29T12:08:26.966Z,97007.59
2023-04-29T12:10:56.559Z,97008.63
2023-04-29T12:13:26.020Z,97008.06
2023-04-29T12:15:53.230Z,97008.06
2023-04-29T12:18:23.358Z,97007.84
2023-04-29T12:20:51.586Z,97000.34
2023-04-29T12:23:24.315Z,96994.91
2023-04-29T12:25:56.671Z,96983.28
2023-04-29T12:28:23.914Z,96998.81
2023-04-29T12:30:52.469Z,97003.50
2023-04-29T12:33:27.678Z,96994.97
2023-04-29T12:35:59.483Z,96994.44
2023-04-29T12:38:32.530Z,96994.66
2023-04-29T12:41:01.148Z,96997.75
2023-04-29T12:43:33.799Z,96993.34
2023-04-29T12:46:04.296Z,96998.31
2023-04-29T12:48:33.547Z,96989.38
2023-04-29T12:51:04.342Z,96997.69
2023-04-29T12:53:31.553Z,96987.66
2023-04-29T12:55:58.741Z,96998.28
2023-04-29T12:58:28.654Z,96994.94
2023-04-29T13:00:55.349Z,96991.56
2023-04-29T13:03:22.487Z,96984.63
2023-04-29T13:05:52.695Z,96988.25
2023-04-29T13:08:19.813Z,96990.81
2023-04-29T13:10:46.565Z,96979.47
2023-04-29T13:13:13.328Z,96980.25
2023-04-29T13:15:40.015Z,96980.25
2023-04-29T13:18:06.906Z,96972.53
2023-04-29T13:20:40.385Z,96972.03
2023-04-29T13:23:08.692Z,96972.81
2023-04-29T13:25:35.696Z,96966.41
2023-04-29T13:28:02.832Z,96960.72
2023-04-29T13:30:29.615Z,96960.19
2023-04-29T13:33:01.271Z,96952.94
2023-04-29T13:35:36.139Z,96952.47
2023-04-29T13:38:02.842Z,96936.44
2023-04-29T13:40:29.719Z,96950.13
2023-04-29T13:43:04.867Z,96950.91
2023-04-29T13:45:38.829Z,96951.19
2023-04-29T13:48:17.010Z,96945.72
2023-04-29T13:53:52.841Z,96933.06
2023-04-29T13:59:31.609Z,96937.44
2023-04-29T14:03:58.764Z,96932.53
2023-04-29T14:06:25.682Z,96932.53
2023-04-29T14:08:52.292Z,96929.72
2023-04-29T14:11:19.706Z,96933.84
2023-04-29T14:13:46.296Z,96929.22
2023-04-29T14:16:13.014Z,96928.19
2023-04-29T14:18:39.690Z,96927.44
2023-04-29T14:21:06.416Z,96925.09
2023-04-29T14:23:32.978Z,96916.88
2023-04-29T14:26:11.577Z,96913.75
2023-04-29T14:28:46.257Z,96918.94
2023-04-29T14:31:13.884Z,96913.25
2023-04-29T14:33:40.958Z,96913.50
2023-04-29T14:36:08.140Z,96903.19
2023-04-29T14:38:34.716Z,96900.34
2023-04-29T14:41:01.370Z,96906.53
2023-04-29T14:43:29.020Z,96901.88
2023-04-29T14:45:56.145Z,96897.75
2023-04-29T14:48:22.795Z,96900.31
2023-04-29T14:50:49.676Z,96898.78
2023-04-29T14:53:16.648Z,96896.97
2023-04-29T14:55:43.436Z,96890.75
2023-04-29T14:58:10.371Z,96883.00
2023-04-29T15:00:37.069Z,96873.41
2023-04-29T15:03:05.264Z,96875.50
2023-04-29T15:05:32.122Z,96873.66
2023-04-29T15:08:01.549Z,96870.06
2023-04-29T15:10:28.674Z,96875.47
2023-04-29T15:12:55.417Z,96876.78
2023-04-29T15:15:23.298Z,96877.34
2023-04-29T15:17:50.149Z,96888.19
2023-04-29T15:20:16.858Z,96879.66
2023-04-29T15:22:43.646Z,96871.38
2023-04-29T15:25:10.484Z,96875.78
2023-04-29T15:27:37.561Z,96861.53
2023-04-29T15:30:05.994Z,96873.69
2023-04-29T15:32:33.106Z,96878.88
2023-04-29T15:35:00.585Z,96877.06
2023-04-29T15:37:30.935Z,96877.06
2023-04-29T15:40:00.959Z,96866.25
2023-04-29T15:42:28.318Z,96862.88
2023-04-29T15:44:54.929Z,96871.66
2023-04-29T15:47:22.804Z,96861.06
2023-04-29T15:49:52.826Z,96859.75
2023-04-29T15:52:19.706Z,96864.13
2023-04-29T15:54:46.544Z,96865.41
2023-04-29T15:57:13.159Z,96858.44
2023-04-29T15:59:39.791Z,96860.78
2023-04-29T16:02:10.924Z,96863.16
2023-04-29T16:04:39.259Z,96866.75
2023-04-29T16:07:06.273Z,96862.88
2023-04-29T16:09:34.143Z,96862.63
2023-04-29T16:12:02.056Z,96864.44
2023-04-29T16:14:30.101Z,96868.56
2023-04-29T16:16:56.927Z,96868.84
2023-04-29T16:19:23.659Z,96866.00
2023-04-29T16:21:50.350Z,96867.03
2023-04-29T16:24:16.990Z,96873.97
2023-04-29T16:26:43.710Z,96872.91
2023-04-29T16:29:12.536Z,96869.81
2023-04-29T16:31:39.800Z,96876.28
2023-04-29T16:34:06.547Z,96865.69
2023-04-29T16:36:33.394Z,96861.06
2023-04-29T16:39:00.184Z,96869.06
2023-04-29T16:41:27.123Z,96863.09
2023-04-29T16:43:54.411Z,96866.97
2023-04-29T16:46:21.027Z,96871.09
2023-04-29T16:48:47.826Z,96879.09
2023-04-29T16:51:14.805Z,96872.63
2023-04-29T16:53:41.452Z,96880.59
2023-04-29T16:56:08.604Z,96881.88
2023-04-29T16:58:35.253Z,96890.66
2023-04-29T17:01:01.964Z,96885.47
2023-04-29T17:03:29.614Z,96877.72
2023-04-29T17:05:56.431Z,96881.84
2023-04-29T17:08:24.343Z,96874.09
2023-04-29T17:10:50.919Z,96870.94
2023-04-29T17:13:17.620Z,96889.47
2023-04-29T17:15:44.266Z,96890.19
2023-04-29T17:18:10.889Z,96890.66
2023-04-29T17:20:37.491Z,96902.78
2023-04-29T17:23:04.182Z,96898.38
2023-04-29T17:25:30.885Z,96900.94
2023-04-29T17:27:57.503Z,96905.53
2023-04-29T17:30:24.928Z,96896.63
2023-04-29T17:32:51.528Z,96906.88
2023-04-29T17:35:18.377Z,96902.44
2023-04-29T17:37:45.167Z,96904.72
2023-04-29T17:40:12.286Z,96909.25
2023-04-29T17:42:39.068Z,96912.03
2023-04-29T17:45:06.298Z,96912.00
2023-04-29T17:47:32.969Z,96907.97
2023-04-29T17:50:01.890Z,96904.19
2023-04-29T17:52:29.410Z,96916.97
2023-04-29T17:54:56.045Z,96915.84
2023-04-29T17:57:22.995Z,96923.97
2023-04-29T17:59:49.630Z,96908.16
2023-04-29T18:02:16.546Z,96916.44
2023-04-29T18:04:43.323Z,96916.59
2023-04-29T18:07:10.101Z,96915.03
2023-04-29T18:09:36.820Z,96922.44
2023-04-29T18:12:05.296Z,96922.69
2023-04-29T18:14:32.070Z,96921.38
2023-04-29T18:17:02.037Z,96917.25
2023-04-29T18:19:28.763Z,96919.78
2023-04-29T18:21:58.384Z,96918.22
2023-04-29T18:24:26.171Z,96924.66
2023-04-29T18:26:52.880Z,96923.28
2023-04-29T18:29:19.534Z,96934.81
2023-04-29T18:31:46.362Z,96929.56
2023-04-29T18:34:13.053Z,96931.13
2023-04-29T18:36:39.786Z,96929.16
2023-04-29T18:39:07.202Z,96931.25
2023-04-29T18:41:33.679Z,96930.03
2023-04-29T18:44:00.364Z,96936.91
2023-04-29T18:46:29.760Z,96936.53
2023-04-29T18:48:56.795Z,96929.72
2023-04-29T18:51:23.741Z,96943.88
2023-04-29T18:53:50.550Z,96951.28
2023-04-29T18:56:17.183Z,96957.16
2023-04-29T18:58:43.779Z,96965.91
2023-04-29T19:01:10.479Z,96958.97
2023-04-29T19:03:37.206Z,96945.81
2023-04-29T19:06:04.128Z,96958.06
2023-04-29T19:08:30.825Z,96959.34
2023-04-29T19:10:59.968Z,96959.09
2023-04-29T19:13:27.846Z,96965.63
2023-04-29T19:15:55.227Z,96960.59
2023-04-29T19:18:23.206Z,96959.63
2023-04-29T19:20:50.468Z,96959.91
2023-04-29T19:23:17.188Z,96960.59
2023-04-29T19:25:44.227Z,96961.88
2023-04-29T19:28:10.836Z,96965.06
2023-04-29T19:30:37.615Z,96961.66
2023-04-29T19:33:04.444Z,96968.75
2023-04-29T19:35:31.157Z,96959.63
2023-04-29T19:37:57.782Z,96953.97
2023-04-29T19:40:24.410Z,96953.69
2023-04-29T19:42:51.021Z,96957.88
2023-04-29T19:45:17.676Z,96957.84
2023-04-29T19:47:44.472Z,96957.06
2023-04-29T19:50:11.177Z,96948.50
2023-04-29T19:52:37.839Z,96944.31
2023-04-29T19:55:05.020Z,96952.97
2023-04-29T19:57:32.098Z,96946.66
2023-04-29T19:59:58.818Z,96948.88
2023-04-29T20:02:25.608Z,96947.50
2023-04-29T20:04:52.294Z,96959.88
2023-04-29T20:07:18.937Z,96955.25
2023-04-29T20:09:45.888Z,96958.31
2023-04-29T20:12:12.464Z,96953.91
2023-04-29T20:14:39.213Z,96960.09
2023-04-29T20:17:06.224Z,96948.31
2023-04-29T20:19:32.957Z,96942.50
2023-04-29T20:21:59.684Z,96946.78
2023-04-29T20:24:27.285Z,96949.56
2023-04-29T20:26:54.033Z,96956.75
2023-04-29T20:29:21.356Z,96951.13
2023-04-29T20:31:48.284Z,96944.13
2023-04-29T20:34:14.956Z,96949.19
2023-04-29T20:36:41.679Z,96948.50
2023-04-29T20:39:09.022Z,96947.56
2023-04-29T20:41:35.767Z,96955.06
2023-04-29T20:44:03.168Z,96952.13
2023-04-29T20:46:29.819Z,96953.00
2023-04-29T20:48:56.637Z,96954.88
2023-04-29T20:51:23.521Z,96951.56
2023-04-29T20:53:50.150Z,96941.84
2023-04-29T20:56:16.800Z,96950.31
2023-04-29T20:58:43.408Z,96944.09
2023-04-29T21:01:10.189Z,96934.13
2023-04-29T21:03:36.959Z,96941.41
2023-04-29T21:06:03.715Z,96949.19
2023-04-29T21:08:30.321Z,96946.66
2023-04-29T21:10:57.007Z,96953.84
2023-04-29T21:13:23.781Z,96947.00
2023-04-29T21:15:51.018Z,96957.50
2023-04-29T21:18:17.653Z,96950.31
2023-04-29T21:20:44.378Z,96951.72
2023-04-29T21:23:10.929Z,96954.53
2023-04-29T21:25:37.532Z,96951.91
2023-04-29T21:28:04.664Z,96950.78
2023-04-29T21:30:31.310Z,96944.38
2023-04-29T21:32:58.091Z,96956.53
2023-04-29T21:35:26.177Z,96952.16
2023-04-29T21:37:52.879Z,96953.50
2023-04-29T21:40:19.725Z,96946.13
2023-04-29T21:42:47.026Z,96936.28
2023-04-29T21:45:18.117Z,96955.66
2023-04-29T21:47:45.090Z,96953.69
2023-04-29T21:50:11.974Z,96956.97
2023-04-29T21:52:38.622Z,96947.16
2023-04-29T21:55:06.369Z,96948.06
2023-04-29T21:57:43.512Z,96940.72
2023-04-29T22:00:49.464Z,96961.31
2023-04-29T22:03:16.210Z,96965.47
2023-04-29T22:05:42.936Z,96953.31
2023-04-29T22:08:09.572Z,96956.72
2023-04-29T22:10:40.102Z,96952.41
2023-04-29T22:13:07.458Z,96954.94
2023-04-29T22:15:34.062Z,96960.72
2023-04-29T22:18:00.922Z,96963.00
2023-04-29T22:20:28.137Z,96950.78
2023-04-29T22:22:54.965Z,96957.00
2023-04-29T22:25:22.064Z,96960.78
2023-04-29T22:27:49.780Z,96933.50
2023-04-29T22:30:17.804Z,96951.16
2023-04-29T22:32:44.812Z,96953.97
2023-04-29T22:35:11.584Z,96952.41
2023-04-29T22:37:38.251Z,96951.03
2023-04-29T22:40:05.409Z,96942.41
2023-04-29T22:42:31.997Z,96939.78
2023-04-29T22:44:58.620Z,96932.09
2023-04-29T22:47:25.175Z,96946.94
2023-04-29T22:49:51.998Z,96942.75
2023-04-29T22:52:18.854Z,96941.16
2023-04-29T22:54:45.430Z,96940.78
2023-04-29T22:57:12.076Z,96933.13
2023-04-29T22:59:38.669Z,96930.84
2023-04-29T23:02:05.861Z,96909.81
2023-04-29T23:04:33.404Z,96924.84
2023-04-29T23:07:00.045Z,96923.59
2023-04-29T23:09:26.738Z,96921.38
2023-04-29T23:11:53.340Z,96928.09
2023-04-29T23:14:22.889Z,96919.50
2023-04-29T23:16:51.078Z,96917.00
2023-04-29T23:19:17.801Z,96919.03
2023-04-29T23:21:44.438Z,96920.34
2023-04-29T23:24:11.047Z,96913.34
2023-04-29T23:26:37.609Z,96922.81
2023-04-29T23:29:04.337Z,96918.28
2023-04-29T23:31:30.946Z,96918.47
2023-04-29T23:33:59.286Z,96920.53
2023-04-29T23:36:26.079Z,96902.78
2023-04-29T23:38:52.650Z,96924.53
2023-04-29T23:41:19.270Z,96916.13
2023-04-29T23:43:45.903Z,96912.22
2023-04-29T23:46:12.508Z,96916.78
2023-04-29T23:48:39.078Z,96914.59
2023-04-29T23:51:05.754Z,96917.41
2023-04-29T23:53:32.420Z,96912.09
2023-04-29T23:55:59.123Z,96910.88
2023-04-29T23:58:25.881Z,96912.78
